createdAt,value
2022-11-29T00:00:07.323Z,22.23
2022-11-29T00:02:54.830Z,21.60
2022-11-29T00:05:42.937Z,24.13
2022-11-29T00:08:30.002Z,21.50
2022-11-29T00:11:41.823Z,22.33
2022-11-29T00:14:29.291Z,21.90
2022-11-29T00:17:16.703Z,21.13
2022-11-29T00:20:04.157Z,20.97
2022-11-29T00:22:51.145Z,22.23
2022-11-29T00:25:39.156Z,22.00
2022-11-29T00:28:26.551Z,22.00
2022-11-29T00:31:30.282Z,22.13
2022-11-29T00:34:17.229Z,21.83
2022-11-29T00:37:04.609Z,20.47
2022-11-29T00:39:52.542Z,22.73
2022-11-29T00:42:40.409Z,21.83
2022-11-29T00:45:27.339Z,23.17
2022-11-29T00:48:14.364Z,21.80
2022-11-29T00:51:02.232Z,20.53
2022-11-29T00:53:49.241Z,21.80
2022-11-29T00:56:36.154Z,21.23
2022-11-29T00:59:23.576Z,22.00
2022-11-29T01:02:10.557Z,20.53
2022-11-29T01:04:57.570Z,23.43
2022-11-29T01:07:44.654Z,22.97
2022-11-29T01:10:31.656Z,21.93
2022-11-29T01:13:18.589Z,21.83
2022-11-29T01:16:06.318Z,21.93
2022-11-29T01:18:53.433Z,22.73
2022-11-29T01:21:41.214Z,21.60
2022-11-29T01:24:29.806Z,22.27
2022-11-29T01:27:16.862Z,21.63
2022-11-29T01:30:05.920Z,21.97
2022-11-29T01:32:52.869Z,23.20
2022-11-29T01:35:39.855Z,22.83
2022-11-29T01:38:26.905Z,23.33
2022-11-29T01:41:20.777Z,22.67
2022-11-29T01:44:28.442Z,25.17
2022-11-29T01:47:17.275Z,24.30
2022-11-29T01:50:04.843Z,23.00
2022-11-29T01:52:52.175Z,23.93
2022-11-29T01:55:42.897Z,23.47
2022-11-29T01:58:30.261Z,23.83
2022-11-29T02:01:17.338Z,23.27
2022-11-29T02:04:05.760Z,22.73
2022-11-29T02:06:52.837Z,22.47
2022-11-29T02:09:39.780Z,23.80
2022-11-29T02:12:36.493Z,23.60
2022-11-29T02:15:29.222Z,23.07
2022-11-29T02:18:36.188Z,22.97
2022-11-29T02:21:37.880Z,22.00
2022-11-29T02:24:48.644Z,23.10
2022-11-29T02:28:13.437Z,24.43
2022-11-29T02:31:09.324Z,24.90
2022-11-29T02:34:01.942Z,23.40
2022-11-29T02:37:01.344Z,24.40
2022-11-29T02:40:00.907Z,25.07
2022-11-29T02:43:01.684Z,24.83
2022-11-29T02:46:20.920Z,24.00
2022-11-29T02:49:43.717Z,23.87
2022-11-29T02:53:05.599Z,23.80
2022-11-29T02:56:34.459Z,23.63
2022-11-29T03:00:02.612Z,25.67
2022-11-29T03:02:59.726Z,24.93
2022-11-29T03:05:53.535Z,24.23
2022-11-29T03:08:54.591Z,25.83
2022-11-29T03:11:46.474Z,26.27
2022-11-29T03:14:49.181Z,24.70
2022-11-29T03:17:48.496Z,24.73
2022-11-29T03:20:35.883Z,25.40
2022-11-29T03:23:31.860Z,25.47
2022-11-29T03:26:27.355Z,25.80
2022-11-29T03:29:34.320Z,24.53
2022-11-29T03:32:27.839Z,25.63
2022-11-29T03:35:22.919Z,24.60
2022-11-29T03:38:15.805Z,25.43
2022-11-29T03:41:18.757Z,25.77
2022-11-29T03:44:06.327Z,24.07
2022-11-29T03:47:16.193Z,25.93
2022-11-29T03:50:13.547Z,25.40
2022-11-29T03:53:22.564Z,26.37
2022-11-29T03:56:32.001Z,25.10
2022-11-29T03:59:28.106Z,24.83
2022-11-29T04:02:58.638Z,25.87
2022-11-29T04:06:10.995Z,25.00
2022-11-29T04:09:28.214Z,23.90
2022-11-29T04:12:34.437Z,25.07
2022-11-29T04:15:27.724Z,24.83
2022-11-29T04:18:37.185Z,25.10
2022-11-29T04:21:37.770Z,25.43
2022-11-29T04:24:52.778Z,23.20
2022-11-29T04:28:06.295Z,26.17
2022-11-29T04:31:05.774Z,25.10
2022-11-29T04:34:21.109Z,26.40
2022-11-29T04:37:09.459Z,25.37
2022-11-29T04:40:23.460Z,26.97
2022-11-29T04:43:17.374Z,25.40
2022-11-29T04:46:36.708Z,26.87
2022-11-29T04:49:42.336Z,26.07
2022-11-29T04:52:47.505Z,26.33
2022-11-29T04:55:54.493Z,25.47
2022-11-29T04:58:52.125Z,24.90
2022-11-29T05:01:47.402Z,25.57
2022-11-29T05:04:53.723Z,26.70
2022-11-29T05:07:58.219Z,24.53
2022-11-29T05:11:10.294Z,26.10
2022-11-29T05:14:09.793Z,27.53
2022-11-29T05:17:31.588Z,27.43
2022-11-29T05:20:41.951Z,24.90
2022-11-29T05:24:10.989Z,25.70
2022-11-29T05:27:10.712Z,27.23
2022-11-29T05:30:00.848Z,25.93
2022-11-29T05:33:07.345Z,26.80
2022-11-29T05:36:02.895Z,27.37
2022-11-29T05:39:10.544Z,29.03
2022-11-29T05:42:09.181Z,27.63
2022-11-29T05:45:29.296Z,26.27
2022-11-29T05:48:46.161Z,25.13
2022-11-29T05:51:42.930Z,25.63
2022-11-29T05:54:33.237Z,27.43
2022-11-29T05:57:31.295Z,26.73
2022-11-29T06:00:19.996Z,27.23
2022-11-29T06:04:01.858Z,25.67
2022-11-29T06:07:24.589Z,25.80
2022-11-29T06:10:19.699Z,27.87
2022-11-29T06:13:22.031Z,27.93
2022-11-29T06:16:14.314Z,28.73
2022-11-29T06:19:05.011Z,27.50
2022-11-29T06:22:11.951Z,26.80
2022-11-29T06:25:03.628Z,27.50
2022-11-29T06:28:15.639Z,26.60
2022-11-29T06:31:22.813Z,28.07
2022-11-29T06:34:11.991Z,27.67
2022-11-29T06:37:00.976Z,27.77
2022-11-29T06:39:50.049Z,26.30
2022-11-29T06:42:37.975Z,28.77
2022-11-29T06:45:25.886Z,29.57
2022-11-29T06:48:17.414Z,29.63
2022-11-29T06:51:19.849Z,29.17
2022-11-29T06:54:34.255Z,27.70
2022-11-29T06:57:29.654Z,29.30
2022-11-29T07:00:21.004Z,28.43
2022-11-29T07:03:31.751Z,38.47
2022-11-29T07:06:27.319Z,34.25
2022-11-29T07:09:18.275Z,29.70
2022-11-29T07:12:05.634Z,27.77
2022-11-29T07:14:53.560Z,27.73
2022-11-29T07:18:00.586Z,27.27
2022-11-29T07:21:11.840Z,27.23
2022-11-29T07:24:34.121Z,27.77
2022-11-29T07:27:34.425Z,27.30
2022-11-29T07:31:00.285Z,28.33
2022-11-29T07:34:05.195Z,26.57
2022-11-29T07:37:13.536Z,26.07
2022-11-29T07:40:19.419Z,26.13
2022-11-29T07:43:22.441Z,26.00
2022-11-29T07:46:09.361Z,27.50
2022-11-29T07:48:56.276Z,25.87
2022-11-29T07:51:43.480Z,26.90
2022-11-29T07:54:30.806Z,26.80
2022-11-29T07:57:17.780Z,25.97
2022-11-29T08:00:05.493Z,26.53
2022-11-29T08:02:52.455Z,26.57
2022-11-29T08:05:40.407Z,27.13
2022-11-29T08:08:27.507Z,26.80
2022-11-29T08:11:15.870Z,28.33
2022-11-29T08:14:04.922Z,26.80
2022-11-29T08:16:51.896Z,26.27
2022-11-29T08:19:38.859Z,25.83
2022-11-29T08:22:25.814Z,27.53
2022-11-29T08:25:12.789Z,26.90
2022-11-29T08:28:01.794Z,27.17
2022-11-29T08:30:48.740Z,27.93
2022-11-29T08:33:38.342Z,28.13
2022-11-29T08:36:27.555Z,28.40
2022-11-29T08:39:16.008Z,29.80
2022-11-29T08:42:04.272Z,26.90
2022-11-29T08:44:53.332Z,29.97
2022-11-29T08:47:42.227Z,26.87
2022-11-29T08:50:29.195Z,27.03
2022-11-29T08:53:36.185Z,27.07
2022-11-29T08:57:10.206Z,29.83
2022-11-29T08:59:30.977Z,27.30
2022-11-29T09:02:19.565Z,28.47
2022-11-29T09:05:08.245Z,29.53
2022-11-29T09:07:59.040Z,27.63
2022-11-29T09:10:47.838Z,27.50
2022-11-29T09:13:35.920Z,28.77
2022-11-29T09:16:25.350Z,28.57
2022-11-29T09:19:14.797Z,28.73
2022-11-29T09:22:03.867Z,29.67
2022-11-29T09:24:51.325Z,30.13
2022-11-29T09:27:38.754Z,28.57
2022-11-29T09:30:26.445Z,27.03
2022-11-29T09:33:13.847Z,29.50
2022-11-29T09:36:01.820Z,28.13
2022-11-29T09:38:49.206Z,29.23
2022-11-29T09:41:49.122Z,27.93
2022-11-29T09:44:46.713Z,29.83
2022-11-29T09:47:48.157Z,29.13
2022-11-29T09:50:37.665Z,29.57
2022-11-29T09:53:52.377Z,28.47
2022-11-29T09:56:43.418Z,28.57
2022-11-29T09:59:36.747Z,28.70
2022-11-29T10:02:29.172Z,39.45
2022-11-29T10:05:28.732Z,30.73
2022-11-29T10:08:16.107Z,30.60
2022-11-29T10:11:12.750Z,30.10
2022-11-29T10:14:14.079Z,28.67
2022-11-29T10:17:05.476Z,27.63
2022-11-29T10:19:55.523Z,27.43
2022-11-29T10:22:49.528Z,28.17
2022-11-29T10:25:42.775Z,27.93
2022-11-29T10:28:31.816Z,26.87
2022-11-29T10:31:25.228Z,27.40
2022-11-29T10:34:14.108Z,28.30
2022-11-29T10:37:02.606Z,26.70
2022-11-29T10:39:53.189Z,27.50
2022-11-29T10:42:49.579Z,30.97
2022-11-29T10:45:50.901Z,29.33
2022-11-29T10:48:39.444Z,30.57
2022-11-29T10:51:27.210Z,29.37
2022-11-29T10:54:24.672Z,31.53
2022-11-29T10:57:17.014Z,28.23
2022-11-29T11:00:09.737Z,30.20
2022-11-29T11:02:58.137Z,28.23
2022-11-29T11:05:56.911Z,30.10
2022-11-29T11:08:47.398Z,29.30
2022-11-29T11:11:34.868Z,28.73
2022-11-29T11:14:27.372Z,30.63
2022-11-29T11:17:21.043Z,28.43
2022-11-29T11:20:14.853Z,30.17
2022-11-29T11:23:03.580Z,28.67
2022-11-29T11:25:56.247Z,30.17
2022-11-29T11:29:01.199Z,28.83
2022-11-29T11:31:53.013Z,28.50
2022-11-29T11:34:50.806Z,29.10
2022-11-29T11:37:38.302Z,29.53
2022-11-29T11:40:28.834Z,29.17
2022-11-29T11:43:22.289Z,30.40
2022-11-29T11:46:10.886Z,28.57
2022-11-29T11:49:01.264Z,30.27
2022-11-29T11:51:48.643Z,29.70
2022-11-29T11:54:36.170Z,31.40
2022-11-29T11:57:24.497Z,29.40
2022-11-29T12:01:01.950Z,29.30
2022-11-29T12:03:48.403Z,27.27
2022-11-29T12:06:39.004Z,29.40
2022-11-29T12:09:44.764Z,31.23
2022-11-29T12:12:39.770Z,32.20
2022-11-29T12:15:32.089Z,34.40
2022-11-29T12:18:30.143Z,38.03
2022-11-29T12:21:20.990Z,32.23
2022-11-29T12:24:22.440Z,30.17
2022-11-29T12:27:11.781Z,32.43
2022-11-29T12:29:59.226Z,30.60
2022-11-29T12:32:52.672Z,31.40
2022-11-29T12:35:48.841Z,30.87
2022-11-29T12:38:49.018Z,30.77
2022-11-29T12:41:36.333Z,31.00
2022-11-29T12:44:40.514Z,31.33
2022-11-29T12:47:35.761Z,32.30
2022-11-29T12:50:29.970Z,28.50
2022-11-29T12:53:29.427Z,30.13
2022-11-29T12:56:22.782Z,29.93
2022-11-29T12:59:21.071Z,30.83
2022-11-29T13:02:24.866Z,30.07
2022-11-29T13:05:12.206Z,30.30
2022-11-29T13:08:19.464Z,30.70
2022-11-29T13:11:25.318Z,31.83
2022-11-29T13:14:46.666Z,31.70
2022-11-29T13:17:42.994Z,30.00
2022-11-29T13:20:46.104Z,30.03
2022-11-29T13:23:45.450Z,30.53
2022-11-29T13:26:41.612Z,31.87
2022-11-29T13:29:29.014Z,31.27
2022-11-29T13:32:28.655Z,32.57
2022-11-29T13:35:16.766Z,33.07
2022-11-29T13:38:10.602Z,30.80
2022-11-29T13:41:21.441Z,37.00
2022-11-29T13:44:20.268Z,35.97
2022-11-29T13:47:08.952Z,34.50
2022-11-29T13:50:03.617Z,36.43
2022-11-29T13:52:50.996Z,36.40
2022-11-29T13:55:44.594Z,37.83
2022-11-29T13:58:36.618Z,34.30
2022-11-29T14:01:26.659Z,35.23
2022-11-29T14:04:23.408Z,37.10
2022-11-29T14:07:13.049Z,41.07
2022-11-29T14:10:07.962Z,36.37
2022-11-29T14:12:56.805Z,33.37
2022-11-29T14:15:44.390Z,34.33
2022-11-29T14:18:37.900Z,36.80
2022-11-29T14:21:25.272Z,37.90
2022-11-29T14:24:32.617Z,39.47
2022-11-29T14:27:19.976Z,35.43
2022-11-29T14:30:33.797Z,36.47
2022-11-29T14:33:30.009Z,48.83
2022-11-29T14:36:35.969Z,38.50
2022-11-29T14:39:42.304Z,33.80
2022-11-29T14:42:30.576Z,31.57
2022-11-29T14:45:28.571Z,41.97
2022-11-29T14:48:25.009Z,33.33
2022-11-29T14:51:14.010Z,39.42
2022-11-29T14:54:21.643Z,33.53
2022-11-29T14:57:27.869Z,30.97
2022-11-29T15:00:16.257Z,30.80
2022-11-29T15:03:12.812Z,30.50
2022-11-29T15:06:09.651Z,31.60
2022-11-29T15:08:57.022Z,31.17
2022-11-29T15:11:50.582Z,33.07
2022-11-29T15:14:48.448Z,33.50
2022-11-29T15:17:35.888Z,33.87
2022-11-29T15:20:29.207Z,33.07
2022-11-29T15:23:18.357Z,32.87
2022-11-29T15:26:05.821Z,33.10
2022-11-29T15:28:53.217Z,34.00
2022-11-29T15:31:41.965Z,33.40
2022-11-29T15:34:34.462Z,34.97
2022-11-29T15:37:24.116Z,34.60
2022-11-29T15:40:15.741Z,34.30
2022-11-29T15:43:12.695Z,35.67
2022-11-29T15:46:02.748Z,34.20
2022-11-29T15:48:50.180Z,37.20
2022-11-29T15:51:38.974Z,37.03
2022-11-29T15:54:26.420Z,38.50
2022-11-29T15:57:19.057Z,43.37
2022-11-29T16:00:07.907Z,36.20
2022-11-29T16:02:59.930Z,33.73
2022-11-29T16:05:50.956Z,35.87
2022-11-29T16:08:42.050Z,35.50
2022-11-29T16:11:31.308Z,35.33
2022-11-29T16:14:22.469Z,37.07
2022-11-29T16:17:09.836Z,34.97
2022-11-29T16:20:18.944Z,36.80
2022-11-29T16:23:13.614Z,34.87
2022-11-29T16:26:02.326Z,35.73
2022-11-29T16:28:51.257Z,36.23
2022-11-29T16:31:39.124Z,38.03
2022-11-29T16:34:27.645Z,37.07
2022-11-29T16:37:18.295Z,36.33
2022-11-29T16:40:06.078Z,37.90
2022-11-29T16:43:06.275Z,38.90
2022-11-29T16:46:13.706Z,39.10
2022-11-29T16:49:02.676Z,38.13
2022-11-29T16:51:50.909Z,36.40
2022-11-29T16:54:38.284Z,39.07
2022-11-29T16:57:26.205Z,36.70
2022-11-29T17:00:30.549Z,38.97
2022-11-29T17:03:19.742Z,35.07
2022-11-29T17:06:07.246Z,39.67
2022-11-29T17:08:56.109Z,36.70
2022-11-29T17:11:44.192Z,36.03
2022-11-29T17:14:33.331Z,36.53
2022-11-29T17:17:20.970Z,36.63
2022-11-29T17:20:08.871Z,36.13
2022-11-29T17:22:56.371Z,37.27
2022-11-29T17:25:43.892Z,35.53
2022-11-29T17:28:31.266Z,38.70
2022-11-29T17:31:20.492Z,37.40
2022-11-29T17:34:08.018Z,38.67
2022-11-29T17:36:55.386Z,36.00
2022-11-29T17:39:44.789Z,36.20
2022-11-29T17:42:32.302Z,35.83
2022-11-29T17:45:19.754Z,35.27
2022-11-29T17:48:07.275Z,36.80
2022-11-29T17:50:59.463Z,37.10
2022-11-29T17:53:46.860Z,36.27
2022-11-29T17:56:34.569Z,36.97
2022-11-29T17:59:21.953Z,36.37
2022-11-29T18:02:11.064Z,36.70
2022-11-29T18:04:59.759Z,33.50
2022-11-29T18:08:01.136Z,37.10
2022-11-29T18:10:49.241Z,36.10
2022-11-29T18:13:36.829Z,38.77
2022-11-29T18:16:26.587Z,34.50
2022-11-29T18:19:15.315Z,37.93
2022-11-29T18:22:03.382Z,37.53
2022-11-29T18:24:51.733Z,36.27
2022-11-29T18:27:41.123Z,36.20
2022-11-29T18:30:28.808Z,37.80
2022-11-29T18:33:16.331Z,36.77
2022-11-29T18:36:06.868Z,39.70
2022-11-29T18:38:58.487Z,38.33
2022-11-29T18:41:47.456Z,36.47
2022-11-29T18:44:35.954Z,36.33
2022-11-29T18:47:23.729Z,35.63
2022-11-29T18:50:12.005Z,35.70
2022-11-29T18:53:00.282Z,37.97
2022-11-29T18:55:47.727Z,36.73
2022-11-29T18:58:35.172Z,37.67
2022-11-29T19:01:23.271Z,36.53
2022-11-29T19:04:12.447Z,36.13
2022-11-29T19:07:00.192Z,35.87
2022-11-29T19:09:48.192Z,34.53
2022-11-29T19:12:35.729Z,34.77
2022-11-29T19:15:23.145Z,33.70
2022-11-29T19:18:10.506Z,33.80
2022-11-29T19:21:08.046Z,35.80
2022-11-29T19:23:59.482Z,34.77
2022-11-29T19:26:48.091Z,34.83
2022-11-29T19:29:39.674Z,35.10
2022-11-29T19:32:27.554Z,36.83
2022-11-29T19:35:14.967Z,34.90
2022-11-29T19:38:02.335Z,34.57
2022-11-29T19:40:49.907Z,37.10
2022-11-29T19:43:37.231Z,34.70
2022-11-29T19:46:26.851Z,37.47
2022-11-29T19:49:15.329Z,35.87
2022-11-29T19:52:02.982Z,35.57
2022-11-29T19:54:50.327Z,32.97
2022-11-29T19:57:38.314Z,36.43
2022-11-29T20:00:26.548Z,33.40
2022-11-29T20:03:14.340Z,34.27
2022-11-29T20:06:03.179Z,34.77
2022-11-29T20:08:51.044Z,36.03
2022-11-29T20:11:39.704Z,35.23
2022-11-29T20:14:27.956Z,37.30
2022-11-29T20:17:15.323Z,38.73
2022-11-29T20:20:02.825Z,39.20
2022-11-29T20:22:53.209Z,35.97
2022-11-29T20:25:40.583Z,36.73
2022-11-29T20:28:28.266Z,35.10
2022-11-29T20:31:17.260Z,35.97
2022-11-29T20:34:04.905Z,38.53
2022-11-29T20:36:58.323Z,37.13
2022-11-29T20:39:49.069Z,36.53
2022-11-29T20:42:47.021Z,37.17
2022-11-29T20:45:34.667Z,36.17
2022-11-29T20:48:23.181Z,36.03
2022-11-29T20:51:11.255Z,38.70
2022-11-29T20:53:58.907Z,36.40
2022-11-29T20:56:46.238Z,37.33
2022-11-29T20:59:33.563Z,36.60
2022-11-29T21:02:21.340Z,37.37
2022-11-29T21:05:09.542Z,38.30
2022-11-29T21:07:57.242Z,36.97
2022-11-29T21:10:45.346Z,38.47
2022-11-29T21:13:32.912Z,36.47
2022-11-29T21:16:27.135Z,38.10
2022-11-29T21:19:19.891Z,35.97
2022-11-29T21:22:16.963Z,36.90
2022-11-29T21:25:05.142Z,37.83
2022-11-29T21:27:53.878Z,38.03
2022-11-29T21:30:41.494Z,36.43
2022-11-29T21:33:29.203Z,36.83
2022-11-29T21:36:16.611Z,37.40
2022-11-29T21:39:05.895Z,37.27
2022-11-29T21:41:53.352Z,36.00
2022-11-29T21:44:40.742Z,39.87
2022-11-29T21:47:28.047Z,38.53
2022-11-29T21:50:15.448Z,51.33
2022-11-29T21:53:02.805Z,55.43
2022-11-29T21:55:55.723Z,52.67
2022-11-29T21:58:43.253Z,47.77
2022-11-29T22:01:30.741Z,51.60
2022-11-29T22:04:18.439Z,42.00
2022-11-29T22:07:05.856Z,44.13
2022-11-29T22:09:53.227Z,48.27
2022-11-29T22:12:51.260Z,44.90
2022-11-29T22:15:39.717Z,40.77
2022-11-29T22:18:28.257Z,42.00
2022-11-29T22:21:15.876Z,40.67
2022-11-29T22:24:03.760Z,40.13
2022-11-29T22:26:52.700Z,40.73
2022-11-29T22:29:42.302Z,42.63
2022-11-29T22:32:29.834Z,40.10
2022-11-29T22:35:18.272Z,40.23
2022-11-29T22:38:05.617Z,40.63
2022-11-29T22:40:52.989Z,41.63
2022-11-29T22:43:40.978Z,42.00
2022-11-29T22:46:29.053Z,42.70
2022-11-29T22:49:16.892Z,39.37
2022-11-29T22:52:04.385Z,41.50
2022-11-29T22:54:51.752Z,40.20
2022-11-29T22:57:39.380Z,39.40
2022-11-29T23:00:27.618Z,40.73
2022-11-29T23:03:15.024Z,41.50
2022-11-29T23:06:03.193Z,40.10
2022-11-29T23:08:51.641Z,41.43
2022-11-29T23:11:39.561Z,41.17
2022-11-29T23:14:27.847Z,40.77
2022-11-29T23:17:15.276Z,42.43
2022-11-29T23:20:02.647Z,42.27
2022-11-29T23:22:50.243Z,44.00
2022-11-29T23:25:37.979Z,44.73
2022-11-29T23:28:25.547Z,41.90
2022-11-29T23:31:13.291Z,44.20
2022-11-29T23:34:01.737Z,45.53
2022-11-29T23:36:52.949Z,45.47
2022-11-29T23:39:40.675Z,44.03
2022-11-29T23:42:28.047Z,42.90
2022-11-29T23:45:15.491Z,44.33
2022-11-29T23:48:02.871Z,43.53
2022-11-29T23:50:50.321Z,43.03
2022-11-29T23:53:37.929Z,43.03
2022-11-29T23:56:25.639Z,43.07
2022-11-29T23:59:13.134Z,42.70
